sensor_id;sensor_type;location;lat;lon;timestamp;temperature;humidity
17726;DHT22;8983;53.156;17.960;2023-02-23T00:01:39;1.60;99.90
17726;DHT22;8983;53.156;17.960;2023-02-23T00:04:08;1.60;99.90
17726;DHT22;8983;53.156;17.960;2023-02-23T00:09:09;1.50;99.90
17726;DHT22;8983;53.156;17.960;2023-02-23T00:11:39;1.50;99.90
17726;DHT22;8983;53.156;17.960;2023-02-23T00:14:07;1.50;99.90
17726;DHT22;8983;53.156;17.960;2023-02-23T00:16:35;1.50;99.90
17726;DHT22;8983;53.156;17.960;2023-02-23T00:19:03;1.50;99.90
17726;DHT22;8983;53.156;17.960;2023-02-23T00:21:34;1.50;99.90
17726;DHT22;8983;53.156;17.960;2023-02-23T00:24:04;1.40;99.90
17726;DHT22;8983;53.156;17.960;2023-02-23T00:26:35;1.40;99.90
17726;DHT22;8983;53.156;17.960;2023-02-23T00:29:06;1.40;99.90
17726;DHT22;8983;53.156;17.960;2023-02-23T00:31:35;1.30;99.90
17726;DHT22;8983;53.156;17.960;2023-02-23T00:34:05;3.20;99.90
17726;DHT22;8983;53.156;17.960;2023-02-23T00:36:52;1.30;99.90
17726;DHT22;8983;53.156;17.960;2023-02-23T00:39:22;1.30;99.90
17726;DHT22;8983;53.156;17.960;2023-02-23T00:41:53;1.30;99.90
17726;DHT22;8983;53.156;17.960;2023-02-23T00:44:23;1.40;99.90
17726;DHT22;8983;53.156;17.960;2023-02-23T00:46:51;1.90;99.90
17726;DHT22;8983;53.156;17.960;2023-02-23T00:49:20;1.20;99.90
17726;DHT22;8983;53.156;17.960;2023-02-23T00:51:49;1.40;99.90
17726;DHT22;8983;53.156;17.960;2023-02-23T00:54:19;1.20;99.90
17726;DHT22;8983;53.156;17.960;2023-02-23T00:56:48;1.20;99.90
17726;DHT22;8983;53.156;17.960;2023-02-23T00:59:17;1.20;99.90
17726;DHT22;8983;53.156;17.960;2023-02-23T01:01:47;1.20;99.90
17726;DHT22;8983;53.156;17.960;2023-02-23T01:04:15;1.20;99.90
17726;DHT22;8983;53.156;17.960;2023-02-23T01:06:43;1.20;99.90
17726;DHT22;8983;53.156;17.960;2023-02-23T01:09:14;1.10;99.90
17726;DHT22;8983;53.156;17.960;2023-02-23T01:11:47;1.10;99.90
17726;DHT22;8983;53.156;17.960;2023-02-23T01:14:15;1.10;99.90
17726;DHT22;8983;53.156;17.960;2023-02-23T01:16:43;1.10;99.90
17726;DHT22;8983;53.156;17.960;2023-02-23T01:19:13;1.10;99.90
17726;DHT22;8983;53.156;17.960;2023-02-23T01:21:41;1.00;99.90
17726;DHT22;8983;53.156;17.960;2023-02-23T01:24:10;1.10;99.90
17726;DHT22;8983;53.156;17.960;2023-02-23T01:26:41;1.00;99.90
17726;DHT22;8983;53.156;17.960;2023-02-23T01:29:12;1.00;99.90
17726;DHT22;8983;53.156;17.960;2023-02-23T01:31:43;1.20;99.90
17726;DHT22;8983;53.156;17.960;2023-02-23T01:34:14;1.00;99.90
17726;DHT22;8983;53.156;17.960;2023-02-23T01:36:43;0.90;99.90
17726;DHT22;8983;53.156;17.960;2023-02-23T01:39:13;1.00;99.90
17726;DHT22;8983;53.156;17.960;2023-02-23T01:41:41;0.90;99.90
17726;DHT22;8983;53.156;17.960;2023-02-23T01:47:12;0.90;99.90
17726;DHT22;8983;53.156;17.960;2023-02-23T01:49:42;0.90;99.90
17726;DHT22;8983;53.156;17.960;2023-02-23T01:52:12;0.90;99.90
17726;DHT22;8983;53.156;17.960;2023-02-23T01:54:44;0.90;99.90
17726;DHT22;8983;53.156;17.960;2023-02-23T01:57:17;1.10;99.90
17726;DHT22;8983;53.156;17.960;2023-02-23T01:59:48;0.80;99.90
17726;DHT22;8983;53.156;17.960;2023-02-23T02:02:18;0.80;99.90
17726;DHT22;8983;53.156;17.960;2023-02-23T02:04:48;0.80;99.90
17726;DHT22;8983;53.156;17.960;2023-02-23T02:07:21;0.80;99.90
17726;DHT22;8983;53.156;17.960;2023-02-23T02:09:54;0.80;99.90
17726;DHT22;8983;53.156;17.960;2023-02-23T02:12:39;0.80;99.90
17726;DHT22;8983;53.156;17.960;2023-02-23T02:15:09;1.30;99.90
17726;DHT22;8983;53.156;17.960;2023-02-23T02:17:48;0.80;99.90
17726;DHT22;8983;53.156;17.960;2023-02-23T02:20:35;1.20;99.90
17726;DHT22;8983;53.156;17.960;2023-02-23T02:23:39;0.70;99.90
17726;DHT22;8983;53.156;17.960;2023-02-23T02:26:18;0.80;99.90
17726;DHT22;8983;53.156;17.960;2023-02-23T02:32:05;0.80;99.90
17726;DHT22;8983;53.156;17.960;2023-02-23T02:37:51;0.80;99.90
17726;DHT22;8983;53.156;17.960;2023-02-23T02:40:27;0.80;99.90
17726;DHT22;8983;53.156;17.960;2023-02-23T02:43:00;0.70;99.90
17726;DHT22;8983;53.156;17.960;2023-02-23T02:45:40;0.70;99.90
17726;DHT22;8983;53.156;17.960;2023-02-23T02:48:14;0.70;99.90
17726;DHT22;8983;53.156;17.960;2023-02-23T02:50:46;0.70;99.90
17726;DHT22;8983;53.156;17.960;2023-02-23T02:53:25;0.80;99.90
17726;DHT22;8983;53.156;17.960;2023-02-23T02:55:58;0.80;99.90
17726;DHT22;8983;53.156;17.960;2023-02-23T02:58:31;0.80;99.90
17726;DHT22;8983;53.156;17.960;2023-02-23T03:01:05;0.80;99.90
17726;DHT22;8983;53.156;17.960;2023-02-23T03:03:51;0.80;99.90
17726;DHT22;8983;53.156;17.960;2023-02-23T03:06:44;0.70;99.90
17726;DHT22;8983;53.156;17.960;2023-02-23T03:09:38;0.80;99.90
17726;DHT22;8983;53.156;17.960;2023-02-23T03:12:32;0.80;99.90
17726;DHT22;8983;53.156;17.960;2023-02-23T03:15:36;0.80;99.90
17726;DHT22;8983;53.156;17.960;2023-02-23T03:18:37;0.80;99.90
17726;DHT22;8983;53.156;17.960;2023-02-23T03:21:32;0.80;99.90
17726;DHT22;8983;53.156;17.960;2023-02-23T03:24:23;0.80;99.90
17726;DHT22;8983;53.156;17.960;2023-02-23T03:27:19;0.80;99.90
17726;DHT22;8983;53.156;17.960;2023-02-23T03:30:12;0.80;99.90
17726;DHT22;8983;53.156;17.960;2023-02-23T03:33:05;0.80;99.90
17726;DHT22;8983;53.156;17.960;2023-02-23T03:35:55;0.90;99.90
17726;DHT22;8983;53.156;17.960;2023-02-23T03:38:46;0.80;99.90
17726;DHT22;8983;53.156;17.960;2023-02-23T03:41:34;0.80;99.90
17726;DHT22;8983;53.156;17.960;2023-02-23T03:44:28;0.80;99.90
17726;DHT22;8983;53.156;17.960;2023-02-23T03:47:16;0.70;99.90
17726;DHT22;8983;53.156;17.960;2023-02-23T03:50:07;0.90;99.90
17726;DHT22;8983;53.156;17.960;2023-02-23T03:52:57;0.80;99.90
17726;DHT22;8983;53.156;17.960;2023-02-23T03:55:49;0.80;99.90
17726;DHT22;8983;53.156;17.960;2023-02-23T03:58:38;0.70;99.90
17726;DHT22;8983;53.156;17.960;2023-02-23T04:01:26;0.70;99.90
17726;DHT22;8983;53.156;17.960;2023-02-23T04:04:13;0.70;99.90
17726;DHT22;8983;53.156;17.960;2023-02-23T04:07:00;0.70;99.90
17726;DHT22;8983;53.156;17.960;2023-02-23T04:09:47;0.70;99.90
17726;DHT22;8983;53.156;17.960;2023-02-23T04:12:37;0.70;99.90
17726;DHT22;8983;53.156;17.960;2023-02-23T04:15:28;0.70;99.90
17726;DHT22;8983;53.156;17.960;2023-02-23T04:17:57;0.80;99.90
17726;DHT22;8983;53.156;17.960;2023-02-23T04:20:26;0.70;99.90
17726;DHT22;8983;53.156;17.960;2023-02-23T04:22:54;0.70;99.90
17726;DHT22;8983;53.156;17.960;2023-02-23T04:25:22;0.70;99.90
17726;DHT22;8983;53.156;17.960;2023-02-23T04:27:50;0.70;99.90
17726;DHT22;8983;53.156;17.960;2023-02-23T04:30:19;0.70;99.90
17726;DHT22;8983;53.156;17.960;2023-02-23T04:32:51;0.70;99.90
17726;DHT22;8983;53.156;17.960;2023-02-23T04:35:20;0.60;99.90
17726;DHT22;8983;53.156;17.960;2023-02-23T04:37:49;0.60;99.90
17726;DHT22;8983;53.156;17.960;2023-02-23T04:40:17;0.70;99.90
17726;DHT22;8983;53.156;17.960;2023-02-23T04:42:46;0.60;99.90
17726;DHT22;8983;53.156;17.960;2023-02-23T04:45:14;0.60;99.90
17726;DHT22;8983;53.156;17.960;2023-02-23T04:47:42;0.60;99.90
17726;DHT22;8983;53.156;17.960;2023-02-23T04:50:11;0.70;99.90
17726;DHT22;8983;53.156;17.960;2023-02-23T04:52:40;0.70;99.90
17726;DHT22;8983;53.156;17.960;2023-02-23T04:55:15;0.70;99.90
17726;DHT22;8983;53.156;17.960;2023-02-23T04:57:45;0.70;99.90
17726;DHT22;8983;53.156;17.960;2023-02-23T05:00:14;0.70;99.90
17726;DHT22;8983;53.156;17.960;2023-02-23T05:02:42;0.70;99.90
17726;DHT22;8983;53.156;17.960;2023-02-23T05:05:11;0.70;99.90
17726;DHT22;8983;53.156;17.960;2023-02-23T05:07:40;0.70;99.90
17726;DHT22;8983;53.156;17.960;2023-02-23T05:10:09;0.70;99.90
17726;DHT22;8983;53.156;17.960;2023-02-23T05:12:37;0.70;99.90
17726;DHT22;8983;53.156;17.960;2023-02-23T05:15:06;0.70;99.90
17726;DHT22;8983;53.156;17.960;2023-02-23T05:17:37;0.70;99.90
17726;DHT22;8983;53.156;17.960;2023-02-23T05:20:08;0.60;99.90
17726;DHT22;8983;53.156;17.960;2023-02-23T05:22:36;0.70;99.90
17726;DHT22;8983;53.156;17.960;2023-02-23T05:25:07;0.70;99.90
17726;DHT22;8983;53.156;17.960;2023-02-23T05:27:36;0.70;99.90
17726;DHT22;8983;53.156;17.960;2023-02-23T05:30:05;0.70;99.90
17726;DHT22;8983;53.156;17.960;2023-02-23T05:32:35;0.70;99.90
17726;DHT22;8983;53.156;17.960;2023-02-23T05:35:04;0.70;99.90
17726;DHT22;8983;53.156;17.960;2023-02-23T05:37:32;0.70;99.90
17726;DHT22;8983;53.156;17.960;2023-02-23T05:40:00;0.70;99.90
17726;DHT22;8983;53.156;17.960;2023-02-23T05:42:30;0.60;99.90
17726;DHT22;8983;53.156;17.960;2023-02-23T05:44:58;0.70;99.90
17726;DHT22;8983;53.156;17.960;2023-02-23T05:47:26;0.60;99.90
17726;DHT22;8983;53.156;17.960;2023-02-23T05:49:54;0.60;99.90
17726;DHT22;8983;53.156;17.960;2023-02-23T05:52:22;0.60;99.90
17726;DHT22;8983;53.156;17.960;2023-02-23T05:54:50;0.60;99.90
17726;DHT22;8983;53.156;17.960;2023-02-23T05:57:18;0.60;99.90
17726;DHT22;8983;53.156;17.960;2023-02-23T05:59:48;0.60;99.90
17726;DHT22;8983;53.156;17.960;2023-02-23T06:02:16;0.60;99.90
17726;DHT22;8983;53.156;17.960;2023-02-23T06:04:44;0.70;99.90
17726;DHT22;8983;53.156;17.960;2023-02-23T06:07:12;0.60;99.90
17726;DHT22;8983;53.156;17.960;2023-02-23T06:09:41;0.60;99.90
17726;DHT22;8983;53.156;17.960;2023-02-23T06:12:10;0.60;99.90
17726;DHT22;8983;53.156;17.960;2023-02-23T06:14:38;0.60;99.90
17726;DHT22;8983;53.156;17.960;2023-02-23T06:17:08;0.60;99.90
17726;DHT22;8983;53.156;17.960;2023-02-23T06:19:36;0.60;99.90
17726;DHT22;8983;53.156;17.960;2023-02-23T06:22:04;0.70;99.90
17726;DHT22;8983;53.156;17.960;2023-02-23T06:24:32;0.60;99.90
17726;DHT22;8983;53.156;17.960;2023-02-23T06:27:00;0.60;99.90
17726;DHT22;8983;53.156;17.960;2023-02-23T06:29:28;0.50;99.90
17726;DHT22;8983;53.156;17.960;2023-02-23T06:31:56;0.60;99.90
17726;DHT22;8983;53.156;17.960;2023-02-23T06:34:28;0.70;99.90
17726;DHT22;8983;53.156;17.960;2023-02-23T06:36:56;0.60;99.90
17726;DHT22;8983;53.156;17.960;2023-02-23T06:39:24;0.60;99.90
17726;DHT22;8983;53.156;17.960;2023-02-23T06:41:52;0.60;99.90
17726;DHT22;8983;53.156;17.960;2023-02-23T06:44:21;0.60;99.90
17726;DHT22;8983;53.156;17.960;2023-02-23T06:46:49;0.70;99.90
17726;DHT22;8983;53.156;17.960;2023-02-23T06:49:17;0.60;99.90
17726;DHT22;8983;53.156;17.960;2023-02-23T06:51:46;0.70;99.90
17726;DHT22;8983;53.156;17.960;2023-02-23T06:54:14;0.70;99.90
17726;DHT22;8983;53.156;17.960;2023-02-23T06:56:43;0.70;99.90
17726;DHT22;8983;53.156;17.960;2023-02-23T06:59:12;0.70;99.90
17726;DHT22;8983;53.156;17.960;2023-02-23T07:01:40;0.70;99.90
17726;DHT22;8983;53.156;17.960;2023-02-23T07:04:10;0.70;99.90
17726;DHT22;8983;53.156;17.960;2023-02-23T07:06:42;0.70;99.90
17726;DHT22;8983;53.156;17.960;2023-02-23T07:09:12;0.80;99.90
17726;DHT22;8983;53.156;17.960;2023-02-23T07:11:41;0.80;99.90
17726;DHT22;8983;53.156;17.960;2023-02-23T07:14:10;0.80;99.90
17726;DHT22;8983;53.156;17.960;2023-02-23T07:16:51;0.90;99.90
17726;DHT22;8983;53.156;17.960;2023-02-23T07:19:19;0.90;99.90
17726;DHT22;8983;53.156;17.960;2023-02-23T07:21:49;0.90;99.90
17726;DHT22;8983;53.156;17.960;2023-02-23T07:24:18;0.90;99.90
17726;DHT22;8983;53.156;17.960;2023-02-23T07:26:47;0.90;99.90
17726;DHT22;8983;53.156;17.960;2023-02-23T07:29:16;1.00;99.90
17726;DHT22;8983;53.156;17.960;2023-02-23T07:31:44;1.10;99.90
17726;DHT22;8983;53.156;17.960;2023-02-23T07:34:12;1.00;99.90
17726;DHT22;8983;53.156;17.960;2023-02-23T07:36:40;1.00;99.90
17726;DHT22;8983;53.156;17.960;2023-02-23T07:39:08;1.00;99.90
17726;DHT22;8983;53.156;17.960;2023-02-23T07:41:37;1.00;99.90
17726;DHT22;8983;53.156;17.960;2023-02-23T07:44:06;1.10;99.90
17726;DHT22;8983;53.156;17.960;2023-02-23T07:46:34;1.10;99.90
17726;DHT22;8983;53.156;17.960;2023-02-23T07:49:02;1.10;99.90
17726;DHT22;8983;53.156;17.960;2023-02-23T07:51:30;1.20;99.90
17726;DHT22;8983;53.156;17.960;2023-02-23T07:54:01;1.20;99.90
17726;DHT22;8983;53.156;17.960;2023-02-23T07:56:30;1.20;99.90
17726;DHT22;8983;53.156;17.960;2023-02-23T07:59:00;1.20;99.90
17726;DHT22;8983;53.156;17.960;2023-02-23T08:01:28;1.30;99.90
17726;DHT22;8983;53.156;17.960;2023-02-23T08:03:56;1.40;99.90
17726;DHT22;8983;53.156;17.960;2023-02-23T08:06:25;1.50;99.90
17726;DHT22;8983;53.156;17.960;2023-02-23T08:08:53;1.40;99.90
17726;DHT22;8983;53.156;17.960;2023-02-23T08:11:21;1.30;99.90
17726;DHT22;8983;53.156;17.960;2023-02-23T08:13:49;1.30;99.90
17726;DHT22;8983;53.156;17.960;2023-02-23T08:16:18;1.30;99.90
17726;DHT22;8983;53.156;17.960;2023-02-23T08:18:46;1.30;99.90
17726;DHT22;8983;53.156;17.960;2023-02-23T08:21:14;1.30;99.90
17726;DHT22;8983;53.156;17.960;2023-02-23T08:23:43;1.40;99.90
17726;DHT22;8983;53.156;17.960;2023-02-23T08:26:11;1.40;99.90
17726;DHT22;8983;53.156;17.960;2023-02-23T08:28:39;1.40;99.90
17726;DHT22;8983;53.156;17.960;2023-02-23T08:31:11;1.50;99.90
17726;DHT22;8983;53.156;17.960;2023-02-23T08:33:41;1.50;99.90
17726;DHT22;8983;53.156;17.960;2023-02-23T08:36:09;1.60;99.90
17726;DHT22;8983;53.156;17.960;2023-02-23T08:38:37;1.60;99.90
17726;DHT22;8983;53.156;17.960;2023-02-23T08:41:05;1.70;99.90
17726;DHT22;8983;53.156;17.960;2023-02-23T08:43:33;1.70;99.90
17726;DHT22;8983;53.156;17.960;2023-02-23T08:46:01;1.80;99.90
17726;DHT22;8983;53.156;17.960;2023-02-23T08:48:30;1.80;99.90
17726;DHT22;8983;53.156;17.960;2023-02-23T08:50:59;1.90;99.90
17726;DHT22;8983;53.156;17.960;2023-02-23T08:53:28;1.90;99.90
17726;DHT22;8983;53.156;17.960;2023-02-23T08:55:57;2.00;99.90
17726;DHT22;8983;53.156;17.960;2023-02-23T08:58:26;2.00;99.90
17726;DHT22;8983;53.156;17.960;2023-02-23T09:00:54;2.10;99.90
17726;DHT22;8983;53.156;17.960;2023-02-23T09:03:23;2.10;99.90
17726;DHT22;8983;53.156;17.960;2023-02-23T09:05:52;2.10;99.90
17726;DHT22;8983;53.156;17.960;2023-02-23T09:08:21;2.20;99.90
17726;DHT22;8983;53.156;17.960;2023-02-23T09:10:50;2.30;99.90
17726;DHT22;8983;53.156;17.960;2023-02-23T09:13:19;2.40;99.90
17726;DHT22;8983;53.156;17.960;2023-02-23T09:15:47;2.40;99.90
17726;DHT22;8983;53.156;17.960;2023-02-23T09:18:15;2.50;99.90
17726;DHT22;8983;53.156;17.960;2023-02-23T09:20:44;2.50;99.90
17726;DHT22;8983;53.156;17.960;2023-02-23T09:23:12;2.60;99.90
17726;DHT22;8983;53.156;17.960;2023-02-23T09:25:42;2.70;99.90
17726;DHT22;8983;53.156;17.960;2023-02-23T09:28:12;2.70;99.90
17726;DHT22;8983;53.156;17.960;2023-02-23T09:30:41;2.80;99.90
17726;DHT22;8983;53.156;17.960;2023-02-23T09:33:10;2.80;99.90
17726;DHT22;8983;53.156;17.960;2023-02-23T09:35:39;3.00;99.90
17726;DHT22;8983;53.156;17.960;2023-02-23T09:38:07;2.80;99.90
17726;DHT22;8983;53.156;17.960;2023-02-23T09:40:44;2.90;99.90
17726;DHT22;8983;53.156;17.960;2023-02-23T09:43:15;3.00;99.90
17726;DHT22;8983;53.156;17.960;2023-02-23T09:45:49;2.90;99.90
17726;DHT22;8983;53.156;17.960;2023-02-23T09:48:21;3.00;99.90
17726;DHT22;8983;53.156;17.960;2023-02-23T09:50:51;3.10;99.90
17726;DHT22;8983;53.156;17.960;2023-02-23T09:53:33;3.10;99.90
17726;DHT22;8983;53.156;17.960;2023-02-23T09:56:09;3.20;99.90
17726;DHT22;8983;53.156;17.960;2023-02-23T09:58:39;3.30;99.90
17726;DHT22;8983;53.156;17.960;2023-02-23T10:01:22;3.40;99.90
17726;DHT22;8983;53.156;17.960;2023-02-23T10:04:00;3.50;99.90
17726;DHT22;8983;53.156;17.960;2023-02-23T10:06:29;3.50;99.90
17726;DHT22;8983;53.156;17.960;2023-02-23T10:09:05;3.70;99.90
17726;DHT22;8983;53.156;17.960;2023-02-23T10:11:43;3.80;99.90
17726;DHT22;8983;53.156;17.960;2023-02-23T10:14:24;4.00;99.90
17726;DHT22;8983;53.156;17.960;2023-02-23T10:17:06;4.20;99.90
17726;DHT22;8983;53.156;17.960;2023-02-23T10:19:40;4.30;99.90
17726;DHT22;8983;53.156;17.960;2023-02-23T10:22:12;4.40;99.90
17726;DHT22;8983;53.156;17.960;2023-02-23T10:24:43;4.60;99.90
17726;DHT22;8983;53.156;17.960;2023-02-23T10:27:16;4.70;99.90
17726;DHT22;8983;53.156;17.960;2023-02-23T10:29:48;4.90;99.90
17726;DHT22;8983;53.156;17.960;2023-02-23T10:32:19;5.00;99.90
17726;DHT22;8983;53.156;17.960;2023-02-23T10:34:52;5.10;99.90
17726;DHT22;8983;53.156;17.960;2023-02-23T10:37:23;5.20;99.90
17726;DHT22;8983;53.156;17.960;2023-02-23T10:39:52;5.40;99.90
17726;DHT22;8983;53.156;17.960;2023-02-23T10:42:24;5.60;99.90
17726;DHT22;8983;53.156;17.960;2023-02-23T10:44:55;5.80;99.90
17726;DHT22;8983;53.156;17.960;2023-02-23T10:47:26;6.00;99.90
17726;DHT22;8983;53.156;17.960;2023-02-23T10:49:56;6.30;99.90
17726;DHT22;8983;53.156;17.960;2023-02-23T10:52:28;6.60;99.90
17726;DHT22;8983;53.156;17.960;2023-02-23T10:54:58;6.60;99.90
17726;DHT22;8983;53.156;17.960;2023-02-23T10:57:33;6.80;99.90
17726;DHT22;8983;53.156;17.960;2023-02-23T11:00:24;6.90;99.90
17726;DHT22;8983;53.156;17.960;2023-02-23T11:02:57;7.00;99.90
17726;DHT22;8983;53.156;17.960;2023-02-23T11:05:42;7.20;99.90
17726;DHT22;8983;53.156;17.960;2023-02-23T11:08:19;7.40;99.90
17726;DHT22;8983;53.156;17.960;2023-02-23T11:11:05;7.60;99.90
17726;DHT22;8983;53.156;17.960;2023-02-23T11:13:40;7.60;99.90
17726;DHT22;8983;53.156;17.960;2023-02-23T11:16:10;7.80;99.90
17726;DHT22;8983;53.156;17.960;2023-02-23T11:18:41;8.00;99.90
17726;DHT22;8983;53.156;17.960;2023-02-23T11:21:22;8.20;99.90
17726;DHT22;8983;53.156;17.960;2023-02-23T11:23:52;8.30;99.90
17726;DHT22;8983;53.156;17.960;2023-02-23T11:26:29;8.60;99.90
17726;DHT22;8983;53.156;17.960;2023-02-23T11:29:02;8.70;99.90
17726;DHT22;8983;53.156;17.960;2023-02-23T11:31:36;8.70;99.90
17726;DHT22;8983;53.156;17.960;2023-02-23T11:34:06;8.80;99.90
17726;DHT22;8983;53.156;17.960;2023-02-23T11:36:36;9.00;99.90
17726;DHT22;8983;53.156;17.960;2023-02-23T11:39:18;9.20;99.90
17726;DHT22;8983;53.156;17.960;2023-02-23T11:42:13;9.10;99.90
17726;DHT22;8983;53.156;17.960;2023-02-23T11:44:49;9.30;99.90
17726;DHT22;8983;53.156;17.960;2023-02-23T11:47:20;9.30;99.90
17726;DHT22;8983;53.156;17.960;2023-02-23T11:49:49;9.20;99.90
17726;DHT22;8983;53.156;17.960;2023-02-23T11:52:20;9.30;99.90
17726;DHT22;8983;53.156;17.960;2023-02-23T11:54:53;9.40;99.90
17726;DHT22;8983;53.156;17.960;2023-02-23T11:57:24;9.50;99.90
17726;DHT22;8983;53.156;17.960;2023-02-23T11:59:55;9.80;99.90
17726;DHT22;8983;53.156;17.960;2023-02-23T12:02:25;10.00;99.90
17726;DHT22;8983;53.156;17.960;2023-02-23T12:05:03;10.20;99.90
17726;DHT22;8983;53.156;17.960;2023-02-23T12:07:36;10.30;99.90
17726;DHT22;8983;53.156;17.960;2023-02-23T12:10:18;10.50;99.90
17726;DHT22;8983;53.156;17.960;2023-02-23T12:12:54;10.50;99.90
17726;DHT22;8983;53.156;17.960;2023-02-23T12:15:34;10.60;99.90
17726;DHT22;8983;53.156;17.960;2023-02-23T12:18:07;10.60;99.90
17726;DHT22;8983;53.156;17.960;2023-02-23T12:20:40;10.50;99.90
17726;DHT22;8983;53.156;17.960;2023-02-23T12:23:12;10.40;99.90
17726;DHT22;8983;53.156;17.960;2023-02-23T12:25:45;10.30;99.90
17726;DHT22;8983;53.156;17.960;2023-02-23T12:28:19;10.30;99.90
17726;DHT22;8983;53.156;17.960;2023-02-23T12:30:57;10.30;99.90
17726;DHT22;8983;53.156;17.960;2023-02-23T12:33:31;10.30;99.90
17726;DHT22;8983;53.156;17.960;2023-02-23T12:36:03;10.30;99.90
17726;DHT22;8983;53.156;17.960;2023-02-23T12:38:43;10.40;99.90
17726;DHT22;8983;53.156;17.960;2023-02-23T12:41:24;10.30;99.90
17726;DHT22;8983;53.156;17.960;2023-02-23T12:43:56;10.30;99.90
17726;DHT22;8983;53.156;17.960;2023-02-23T12:46:33;10.40;99.90
17726;DHT22;8983;53.156;17.960;2023-02-23T12:49:09;10.40;99.80
17726;DHT22;8983;53.156;17.960;2023-02-23T12:51:43;10.60;99.50
17726;DHT22;8983;53.156;17.960;2023-02-23T12:54:14;10.40;99.30
17726;DHT22;8983;53.156;17.960;2023-02-23T12:56:51;10.40;99.10
17726;DHT22;8983;53.156;17.960;2023-02-23T12:59:42;10.30;99.00
17726;DHT22;8983;53.156;17.960;2023-02-23T13:02:20;10.20;99.00
17726;DHT22;8983;53.156;17.960;2023-02-23T13:05:11;10.20;99.10
17726;DHT22;8983;53.156;17.960;2023-02-23T13:07:51;10.00;99.20
17726;DHT22;8983;53.156;17.960;2023-02-23T13:10:41;9.90;99.10
17726;DHT22;8983;53.156;17.960;2023-02-23T13:13:21;9.60;99.20
17726;DHT22;8983;53.156;17.960;2023-02-23T13:15:58;9.40;99.40
17726;DHT22;8983;53.156;17.960;2023-02-23T13:18:33;9.20;99.60
17726;DHT22;8983;53.156;17.960;2023-02-23T13:21:08;9.00;99.70
17726;DHT22;8983;53.156;17.960;2023-02-23T13:23:52;9.00;99.90
17726;DHT22;8983;53.156;17.960;2023-02-23T13:26:29;8.80;99.90
17726;DHT22;8983;53.156;17.960;2023-02-23T13:29:03;8.70;99.90
17726;DHT22;8983;53.156;17.960;2023-02-23T13:31:34;8.50;99.90
17726;DHT22;8983;53.156;17.960;2023-02-23T13:34:08;8.30;99.90
17726;DHT22;8983;53.156;17.960;2023-02-23T13:36:38;8.20;99.90
17726;DHT22;8983;53.156;17.960;2023-02-23T13:42:30;8.00;99.90
17726;DHT22;8983;53.156;17.960;2023-02-23T13:45:11;7.80;99.90
17726;DHT22;8983;53.156;17.960;2023-02-23T13:47:47;7.80;99.90
17726;DHT22;8983;53.156;17.960;2023-02-23T13:50:21;7.70;99.90
17726;DHT22;8983;53.156;17.960;2023-02-23T13:52:53;7.60;99.90
17726;DHT22;8983;53.156;17.960;2023-02-23T13:55:44;7.60;99.90
17726;DHT22;8983;53.156;17.960;2023-02-23T13:58:26;7.60;99.90
17726;DHT22;8983;53.156;17.960;2023-02-23T14:01:08;7.50;99.90
17726;DHT22;8983;53.156;17.960;2023-02-23T14:03:44;7.50;99.90
17726;DHT22;8983;53.156;17.960;2023-02-23T14:06:17;7.50;99.90
17726;DHT22;8983;53.156;17.960;2023-02-23T14:08:51;7.60;99.90
17726;DHT22;8983;53.156;17.960;2023-02-23T14:11:40;7.50;99.90
17726;DHT22;8983;53.156;17.960;2023-02-23T14:14:13;7.60;99.90
17726;DHT22;8983;53.156;17.960;2023-02-23T14:16:43;7.60;99.90
17726;DHT22;8983;53.156;17.960;2023-02-23T14:19:29;7.60;99.90
17726;DHT22;8983;53.156;17.960;2023-02-23T14:22:02;7.60;99.90
17726;DHT22;8983;53.156;17.960;2023-02-23T14:24:31;7.60;99.90
17726;DHT22;8983;53.156;17.960;2023-02-23T14:27:23;7.50;99.90
17726;DHT22;8983;53.156;17.960;2023-02-23T14:30:25;7.40;99.90
17726;DHT22;8983;53.156;17.960;2023-02-23T14:32:53;7.50;99.90
17726;DHT22;8983;53.156;17.960;2023-02-23T14:35:51;7.50;99.90
17726;DHT22;8983;53.156;17.960;2023-02-23T14:38:29;7.50;99.90
17726;DHT22;8983;53.156;17.960;2023-02-23T14:41:13;7.50;99.90
17726;DHT22;8983;53.156;17.960;2023-02-23T14:43:43;7.50;99.90
17726;DHT22;8983;53.156;17.960;2023-02-23T14:46:17;7.40;99.90
17726;DHT22;8983;53.156;17.960;2023-02-23T14:48:56;7.30;99.90
17726;DHT22;8983;53.156;17.960;2023-02-23T14:51:35;7.30;99.90
17726;DHT22;8983;53.156;17.960;2023-02-23T14:54:11;7.20;99.90
17726;DHT22;8983;53.156;17.960;2023-02-23T14:56:48;7.20;99.90
17726;DHT22;8983;53.156;17.960;2023-02-23T14:59:18;7.10;99.90
17726;DHT22;8983;53.156;17.960;2023-02-23T15:01:48;7.20;99.90
17726;DHT22;8983;53.156;17.960;2023-02-23T15:04:18;7.10;99.90
17726;DHT22;8983;53.156;17.960;2023-02-23T15:06:48;7.00;99.90
17726;DHT22;8983;53.156;17.960;2023-02-23T15:09:28;7.00;99.90
17726;DHT22;8983;53.156;17.960;2023-02-23T15:11:59;6.90;99.90
17726;DHT22;8983;53.156;17.960;2023-02-23T15:14:32;6.90;99.90
17726;DHT22;8983;53.156;17.960;2023-02-23T15:17:03;6.90;99.90
17726;DHT22;8983;53.156;17.960;2023-02-23T15:19:33;6.90;99.90
17726;DHT22;8983;53.156;17.960;2023-02-23T15:22:03;6.90;99.90
17726;DHT22;8983;53.156;17.960;2023-02-23T15:24:41;6.80;99.90
17726;DHT22;8983;53.156;17.960;2023-02-23T15:27:16;6.80;99.90
17726;DHT22;8983;53.156;17.960;2023-02-23T15:29:44;6.70;99.90
17726;DHT22;8983;53.156;17.960;2023-02-23T15:32:17;6.70;99.90
17726;DHT22;8983;53.156;17.960;2023-02-23T15:34:46;6.70;99.90
17726;DHT22;8983;53.156;17.960;2023-02-23T15:37:19;6.60;99.90
17726;DHT22;8983;53.156;17.960;2023-02-23T15:39:53;6.50;99.90
17726;DHT22;8983;53.156;17.960;2023-02-23T15:42:25;6.70;99.90
17726;DHT22;8983;53.156;17.960;2023-02-23T15:44:57;6.70;99.90
17726;DHT22;8983;53.156;17.960;2023-02-23T15:47:31;6.60;99.90
17726;DHT22;8983;53.156;17.960;2023-02-23T15:50:05;6.60;99.90
17726;DHT22;8983;53.156;17.960;2023-02-23T15:52:38;6.60;99.90
17726;DHT22;8983;53.156;17.960;2023-02-23T15:55:17;6.60;99.90
17726;DHT22;8983;53.156;17.960;2023-02-23T15:57:52;6.60;99.90
17726;DHT22;8983;53.156;17.960;2023-02-23T16:00:26;6.60;99.90
17726;DHT22;8983;53.156;17.960;2023-02-23T16:03:00;6.50;99.90
17726;DHT22;8983;53.156;17.960;2023-02-23T16:05:30;6.50;99.90
17726;DHT22;8983;53.156;17.960;2023-02-23T16:08:18;6.70;99.90
17726;DHT22;8983;53.156;17.960;2023-02-23T16:10:52;6.50;99.90
17726;DHT22;8983;53.156;17.960;2023-02-23T16:13:23;6.40;99.90
17726;DHT22;8983;53.156;17.960;2023-02-23T16:15:53;6.40;99.90
17726;DHT22;8983;53.156;17.960;2023-02-23T16:18:32;6.30;99.90
17726;DHT22;8983;53.156;17.960;2023-02-23T16:21:02;6.40;99.90
17726;DHT22;8983;53.156;17.960;2023-02-23T16:23:34;6.30;99.90
17726;DHT22;8983;53.156;17.960;2023-02-23T16:26:08;6.30;99.90
17726;DHT22;8983;53.156;17.960;2023-02-23T16:28:41;6.30;99.90
17726;DHT22;8983;53.156;17.960;2023-02-23T16:31:12;6.30;99.90
17726;DHT22;8983;53.156;17.960;2023-02-23T16:33:43;6.50;99.90
17726;DHT22;8983;53.156;17.960;2023-02-23T16:36:18;6.20;99.90
17726;DHT22;8983;53.156;17.960;2023-02-23T16:38:56;6.20;99.90
17726;DHT22;8983;53.156;17.960;2023-02-23T16:41:28;6.20;99.90